Edmonton, Alberta

4:30 AM MDT on August 22, 2014 (GMT -0600)
South Park | Change Station
CLOSE
Current Station
Personal Weather Station
Location: Leduc, ALBERTA
Elevation: 2408 ft
Nearby Weather Stations

Elev 2408 ft 53.25 °N, 113.54 °W | Updated 1 second ago

Mostly Cloudy
Mostly Cloudy
43.5 °F
Feels Like 44 °F
N
0.0
Wind Variable Wind from SE
Gusts 0.0 mph

Today is forecast to be nearly the same temperature as yesterday.

Today
High -- | Low -- °F
--% Chance of Precip.
Yesterday
High -- | Low -- °F
Precip. -- in
6:26 AM 8:46 PM
Waning Crescent, 9% visible
Pressure 30.33 in
Visibility 15.0 miles
Clouds Mostly Cloudy 7400 ft
Windchill 44 °F
Dew Point 34 °F
Humidity 70%
Rainfall 0.00 in
Snow Depth Not available.
UV 0 out of 12
Pollen Not available.
Air Quality Not available.
Flu Activity Not available.
METAR CYEG 221000Z 10005KT 15SM BKN074 04/03 A3028 RMK AC6 SLP269

More Conditions Fewer Conditions

Pressure 30.33 in
Visibility 15.0 miles
Clouds Mostly Cloudy 7400 ft
Windchill 44 °F
Dew Point 34 °F
Humidity 70%
Rainfall 0.00 in
Snow Depth Not available.
UV 0 out of 12
Pollen Not available.
Air Quality Not available.
Flu Activity Not available.
METAR CYEG 221000Z 10005KT 15SM BKN074 04/03 A3028 RMK AC6 SLP269

More Conditions Fewer Conditions

10-Day Weather Forecast

Almanac

Astronomy

Aug. 22, 2014 Rise Set
Actual Time 6:26 AM MDT 8:46 PM MDT
Civil Twilight 5:48 AM MDT 9:24 PM MDT
Nautical Twilight 4:59 AM MDT 10:12 PM MDT
Astronomical Twilight 4:02 AM MDT 11:09 PM MDT
Moon 3:42 AM MDT 7:04 PM MDT
Length of Visible Light 15h 35m
Length of Day
14h 19m
Tomorrow will be 3m 58s shorter.
Waning Crescent, 9% of the Moon is Illuminated
Today
Waning Crescent
Aug 25
New
Sep 2
First Quarter
Sep 8
Full
Sep 15
Last Quarter

Yesterday's Extremes

Country Highs Country Lows

Community

WunderPhotos

Upload Photos

1,746,149 photos uploaded!

Nearby

Snow Depth

Not available.

Earthquake Activity

City Distance Mag. Time & Date
No recent earthquake activity has been reported nearby.
Minimum magnitude displayed is 2.5.

Coastal Water Temperatures

Place Temperature
No Stations Reporting

Nearby Weather Stations